createdAt,value
2022-08-17T00:00:02.015Z,23.90
2022-08-17T00:03:04.553Z,23.80
2022-08-17T00:05:33.736Z,23.90
2022-08-17T00:08:01.175Z,23.90
2022-08-17T00:10:29.275Z,23.80
2022-08-17T00:13:00.213Z,23.80
2022-08-17T00:15:27.697Z,23.70
2022-08-17T00:17:55.089Z,23.70
2022-08-17T00:20:34.911Z,23.70
2022-08-17T00:23:09.359Z,23.70
2022-08-17T00:25:37.201Z,23.60
2022-08-17T00:28:06.450Z,23.60
2022-08-17T00:30:51.182Z,23.60
2022-08-17T00:33:23.873Z,23.60
2022-08-17T00:35:52.026Z,23.60
2022-08-17T00:38:20.345Z,23.60
2022-08-17T00:40:52.005Z,23.60
2022-08-17T00:43:28.886Z,23.50
2022-08-17T00:45:57.545Z,23.60
2022-08-17T00:48:29.196Z,23.40
2022-08-17T00:51:26.181Z,23.40
2022-08-17T00:54:20.837Z,23.40
2022-08-17T00:56:54.502Z,23.30
2022-08-17T00:59:26.101Z,23.30
2022-08-17T01:01:54.125Z,23.40
2022-08-17T01:04:23.092Z,23.30
2022-08-17T01:06:51.993Z,23.30
2022-08-17T01:09:20.799Z,23.30
2022-08-17T01:11:52.604Z,23.30
2022-08-17T01:14:25.137Z,23.30
2022-08-17T01:16:55.261Z,23.20
2022-08-17T01:19:34.579Z,23.20
2022-08-17T01:22:17.157Z,23.20
2022-08-17T01:24:52.106Z,23.10
2022-08-17T01:27:21.436Z,23.10
2022-08-17T01:29:53.302Z,23.00
2022-08-17T01:32:20.917Z,23.00
2022-08-17T01:34:50.648Z,23.00
2022-08-17T01:37:20.972Z,22.80
2022-08-17T01:39:55.587Z,22.90
2022-08-17T01:42:40.138Z,22.90
2022-08-17T01:45:17.056Z,22.90
2022-08-17T01:47:44.506Z,22.90
2022-08-17T01:50:16.256Z,22.80
2022-08-17T01:52:49.720Z,22.70
2022-08-17T01:55:24.608Z,22.80
2022-08-17T01:57:54.656Z,22.80
2022-08-17T02:00:22.666Z,22.70
2022-08-17T02:02:50.157Z,22.70
2022-08-17T02:05:18.653Z,22.70
2022-08-17T02:07:59.945Z,22.70
2022-08-17T02:10:34.089Z,22.60
2022-08-17T02:13:04.575Z,22.50
2022-08-17T02:15:32.517Z,22.50
2022-08-17T02:17:59.904Z,22.60
2022-08-17T02:20:42.079Z,22.60
2022-08-17T02:23:12.399Z,22.60
2022-08-17T02:25:42.735Z,22.60
2022-08-17T02:28:11.473Z,22.50
2022-08-17T02:31:01.127Z,22.60
2022-08-17T02:33:42.634Z,22.50
2022-08-17T02:36:13.223Z,22.50
2022-08-17T02:38:41.800Z,22.50
2022-08-17T02:41:09.770Z,22.50
2022-08-17T02:43:37.394Z,22.40
2022-08-17T02:46:04.748Z,22.40
2022-08-17T02:48:32.171Z,22.30
2022-08-17T02:51:00.931Z,22.30
2022-08-17T02:53:33.665Z,22.30
2022-08-17T02:56:04.826Z,22.20
2022-08-17T02:58:35.301Z,22.20
2022-08-17T03:01:08.564Z,22.20
2022-08-17T03:03:38.509Z,22.20
2022-08-17T03:06:07.926Z,22.20
2022-08-17T03:08:37.740Z,22.10
2022-08-17T03:11:05.344Z,22.20
2022-08-17T03:13:32.703Z,22.20
2022-08-17T03:16:00.234Z,22.10
2022-08-17T03:18:28.329Z,22.10
2022-08-17T03:20:58.933Z,22.10
2022-08-17T03:23:29.579Z,22.00
2022-08-17T03:25:58.720Z,22.10
2022-08-17T03:28:27.747Z,22.00
2022-08-17T03:30:55.249Z,22.00
2022-08-17T03:33:22.882Z,22.00
2022-08-17T03:35:51.076Z,22.00
2022-08-17T03:38:19.363Z,22.00
2022-08-17T03:40:56.260Z,22.00
2022-08-17T03:43:25.843Z,21.90
2022-08-17T03:46:28.386Z,21.90
2022-08-17T03:49:17.317Z,21.90
2022-08-17T03:52:04.751Z,21.90
2022-08-17T03:54:50.752Z,21.90
2022-08-17T03:57:19.418Z,21.90
2022-08-17T03:59:47.722Z,21.90
2022-08-17T04:02:22.103Z,21.90
2022-08-17T04:04:51.246Z,22.00
2022-08-17T04:07:25.349Z,22.00
2022-08-17T04:09:53.078Z,22.00
2022-08-17T04:12:23.122Z,22.00
2022-08-17T04:14:52.961Z,22.00
2022-08-17T04:17:24.486Z,22.00
2022-08-17T04:19:52.649Z,22.00
2022-08-17T04:22:32.048Z,22.00
2022-08-17T04:25:16.375Z,22.00
2022-08-17T04:27:44.968Z,22.00
2022-08-17T04:30:13.461Z,22.00
2022-08-17T04:33:07.289Z,22.00
2022-08-17T04:35:42.152Z,22.10
2022-08-17T04:38:12.365Z,22.10
2022-08-17T04:40:58.830Z,22.20
2022-08-17T04:43:27.802Z,22.20
2022-08-17T04:46:00.758Z,22.30
2022-08-17T04:48:36.936Z,22.30
2022-08-17T04:51:14.306Z,22.30
2022-08-17T04:53:44.652Z,22.30
2022-08-17T04:56:16.758Z,22.40
2022-08-17T04:58:46.541Z,22.40
2022-08-17T05:01:15.524Z,22.50
2022-08-17T05:03:44.548Z,22.60
2022-08-17T05:06:12.074Z,22.60
2022-08-17T05:08:40.025Z,22.70
2022-08-17T05:11:07.619Z,22.80
2022-08-17T05:13:35.064Z,22.90
2022-08-17T05:16:03.993Z,22.80
2022-08-17T05:18:32.187Z,22.90
2022-08-17T05:21:00.262Z,23.10
2022-08-17T05:23:41.681Z,23.10
2022-08-17T05:26:25.414Z,23.10
2022-08-17T05:29:02.855Z,23.10
2022-08-17T05:31:30.912Z,23.20
2022-08-17T05:33:58.326Z,23.40
2022-08-17T05:36:42.949Z,23.50
2022-08-17T05:39:16.494Z,23.60
2022-08-17T05:41:48.657Z,23.70
2022-08-17T05:44:17.301Z,23.80
2022-08-17T05:46:51.725Z,23.90
2022-08-17T05:49:27.407Z,24.00
2022-08-17T05:52:08.518Z,24.10
2022-08-17T05:54:41.428Z,24.20
2022-08-17T05:57:24.104Z,24.30
2022-08-17T06:00:30.182Z,24.50
2022-08-17T06:03:29.186Z,24.60
2022-08-17T06:06:31.116Z,24.80
2022-08-17T06:08:58.919Z,25.00
2022-08-17T06:11:38.262Z,25.10
2022-08-17T06:14:49.373Z,25.30
2022-08-17T06:17:22.270Z,25.40
2022-08-17T06:19:54.985Z,25.60
2022-08-17T06:22:31.560Z,25.60
2022-08-17T06:25:04.856Z,25.80
2022-08-17T06:27:42.949Z,25.90
2022-08-17T06:30:21.464Z,26.00
2022-08-17T06:32:51.400Z,26.30
2022-08-17T06:35:52.398Z,26.50
2022-08-17T06:38:46.375Z,26.60
2022-08-17T06:41:46.534Z,26.70
2022-08-17T06:44:42.189Z,26.80
2022-08-17T06:47:49.501Z,26.80
2022-08-17T06:50:48.476Z,27.00
2022-08-17T06:53:36.378Z,27.10
2022-08-17T06:56:22.436Z,27.30
2022-08-17T06:58:55.975Z,27.40
2022-08-17T07:01:28.597Z,27.60
2022-08-17T07:04:17.518Z,27.70
2022-08-17T07:07:00.055Z,27.70
2022-08-17T07:09:36.122Z,27.80
2022-08-17T07:12:15.526Z,27.90
2022-08-17T07:14:52.011Z,28.00
2022-08-17T07:17:22.216Z,28.00
2022-08-17T07:20:18.152Z,28.20
2022-08-17T07:23:09.063Z,28.40
2022-08-17T07:25:36.639Z,28.20
2022-08-17T07:28:07.079Z,28.40
2022-08-17T07:30:55.394Z,28.50
2022-08-17T07:33:29.438Z,28.70
2022-08-17T07:35:58.591Z,28.90
2022-08-17T07:38:28.709Z,28.90
2022-08-17T07:41:02.852Z,28.80
2022-08-17T07:43:32.333Z,29.00
2022-08-17T07:46:24.222Z,29.20
2022-08-17T07:48:57.085Z,29.10
2022-08-17T07:51:34.144Z,29.20
2022-08-17T07:54:22.777Z,29.40
2022-08-17T07:56:54.999Z,29.40
2022-08-17T07:59:41.240Z,29.60
2022-08-17T08:02:40.580Z,29.60
2022-08-17T08:05:25.138Z,29.80
2022-08-17T08:08:49.293Z,29.90
2022-08-17T08:11:33.780Z,29.90
2022-08-17T08:14:28.321Z,29.90
2022-08-17T08:17:09.410Z,29.90
2022-08-17T08:19:37.093Z,29.80
2022-08-17T08:22:19.189Z,30.00
2022-08-17T08:24:49.317Z,30.00
2022-08-17T08:27:35.929Z,29.90
2022-08-17T08:30:08.498Z,30.10
2022-08-17T08:32:54.343Z,30.20
2022-08-17T08:35:37.808Z,30.20
2022-08-17T08:38:11.278Z,30.00
2022-08-17T08:41:18.973Z,30.20
2022-08-17T08:43:58.752Z,30.20
2022-08-17T08:46:38.345Z,30.30
2022-08-17T08:50:02.006Z,30.40
2022-08-17T08:52:40.519Z,30.40
2022-08-17T08:55:14.722Z,30.40
2022-08-17T08:57:53.057Z,30.50
2022-08-17T09:00:23.325Z,30.60
2022-08-17T09:03:10.120Z,30.60
2022-08-17T09:05:58.721Z,30.60
2022-08-17T09:09:02.245Z,30.60
2022-08-17T09:11:35.935Z,30.50
2022-08-17T09:14:43.168Z,30.70
2022-08-17T09:17:36.040Z,30.80
2022-08-17T09:20:27.400Z,30.80
2022-08-17T09:23:08.308Z,30.90
2022-08-17T09:25:50.072Z,30.80
2022-08-17T09:28:24.558Z,30.70
2022-08-17T09:30:55.991Z,30.70
2022-08-17T09:33:28.179Z,30.80
2022-08-17T09:36:11.051Z,30.90
2022-08-17T09:38:56.945Z,30.90
2022-08-17T09:42:01.820Z,30.90
2022-08-17T09:44:54.067Z,31.10
2022-08-17T09:47:31.956Z,31.20
2022-08-17T09:50:11.867Z,31.10
2022-08-17T09:52:43.814Z,31.10
2022-08-17T09:55:11.475Z,31.20
2022-08-17T09:58:29.012Z,31.20
2022-08-17T10:01:03.980Z,31.10
2022-08-17T10:04:05.883Z,31.20
2022-08-17T10:06:40.529Z,31.20
2022-08-17T10:09:22.774Z,31.30
2022-08-17T10:12:17.402Z,31.50
2022-08-17T10:15:17.293Z,31.50
2022-08-17T10:18:30.586Z,31.40
2022-08-17T10:21:29.973Z,31.50
2022-08-17T10:24:34.037Z,31.50
2022-08-17T10:27:05.289Z,31.50
2022-08-17T10:29:48.911Z,31.40
2022-08-17T10:32:46.267Z,31.40
2022-08-17T10:35:34.683Z,31.60
2022-08-17T10:38:24.444Z,31.60
2022-08-17T10:41:05.913Z,31.60
2022-08-17T10:43:55.840Z,31.50
2022-08-17T10:47:06.636Z,31.70
2022-08-17T10:49:44.697Z,31.40
2022-08-17T10:52:24.928Z,31.30
2022-08-17T10:54:54.883Z,31.10
2022-08-17T10:57:42.835Z,30.90
2022-08-17T11:00:16.251Z,30.80
2022-08-17T11:02:50.617Z,31.20
2022-08-17T11:05:24.501Z,31.50
2022-08-17T11:08:17.387Z,31.60
2022-08-17T11:10:57.080Z,31.70
2022-08-17T11:13:33.978Z,31.80
2022-08-17T11:16:16.534Z,32.10
2022-08-17T11:18:49.185Z,32.20
2022-08-17T11:21:25.466Z,32.00
2022-08-17T11:24:12.234Z,31.70
2022-08-17T11:26:47.788Z,31.60
2022-08-17T11:29:29.645Z,31.50
2022-08-17T11:32:05.424Z,31.40
2022-08-17T11:34:33.689Z,31.60
2022-08-17T11:37:51.715Z,31.80
2022-08-17T11:40:27.563Z,31.90
2022-08-17T11:43:07.823Z,32.10
2022-08-17T11:45:47.818Z,32.30
2022-08-17T11:48:48.789Z,32.40
2022-08-17T11:51:34.502Z,32.40
2022-08-17T11:54:31.823Z,32.60
2022-08-17T11:56:53.963Z,32.80
2022-08-17T11:59:33.427Z,32.90
2022-08-17T12:02:02.796Z,32.90
2022-08-17T12:04:33.989Z,32.90
2022-08-17T12:07:10.714Z,32.90
2022-08-17T12:09:46.340Z,33.00
2022-08-17T12:12:33.645Z,32.90
2022-08-17T12:15:10.602Z,32.90
2022-08-17T12:17:42.634Z,33.10
2022-08-17T12:20:14.627Z,33.10
2022-08-17T12:23:01.324Z,33.20
2022-08-17T12:25:56.566Z,33.10
2022-08-17T12:28:30.524Z,33.10
2022-08-17T12:31:13.846Z,32.90
2022-08-17T12:33:46.940Z,32.90
2022-08-17T12:36:17.279Z,32.90
2022-08-17T12:39:12.898Z,32.90
2022-08-17T12:41:47.314Z,32.90
2022-08-17T12:44:49.893Z,33.10
2022-08-17T12:47:22.342Z,33.20
2022-08-17T12:50:28.495Z,33.20
2022-08-17T12:53:01.925Z,33.30
2022-08-17T12:55:36.253Z,33.30
2022-08-17T12:58:04.227Z,33.30
2022-08-17T13:00:39.057Z,33.00
2022-08-17T13:03:12.886Z,33.00
2022-08-17T13:05:43.266Z,33.30
2022-08-17T13:08:20.391Z,33.30
2022-08-17T13:10:56.138Z,33.50
2022-08-17T13:13:27.031Z,33.40
2022-08-17T13:16:09.798Z,33.40
2022-08-17T13:18:39.347Z,33.40
2022-08-17T13:21:19.065Z,33.20
2022-08-17T13:24:14.953Z,32.90
2022-08-17T13:26:54.208Z,32.60
2022-08-17T13:29:34.186Z,32.60
2022-08-17T13:32:04.856Z,32.90
2022-08-17T13:35:13.217Z,33.20
2022-08-17T13:37:55.909Z,33.30
2022-08-17T13:40:23.372Z,33.30
2022-08-17T13:42:54.306Z,33.20
2022-08-17T13:45:35.651Z,33.30
2022-08-17T13:48:11.108Z,33.40
2022-08-17T13:51:05.118Z,33.50
2022-08-17T13:53:40.402Z,33.50
2022-08-17T13:56:37.877Z,33.50
2022-08-17T13:59:13.510Z,33.40
2022-08-17T14:01:44.309Z,33.40
2022-08-17T14:04:23.289Z,33.30
2022-08-17T14:06:55.293Z,33.20
2022-08-17T14:09:27.061Z,33.30
2022-08-17T14:11:58.294Z,33.40
2022-08-17T14:14:25.873Z,33.40
2022-08-17T14:16:54.446Z,33.40
2022-08-17T14:19:24.962Z,33.40
2022-08-17T14:21:56.683Z,33.40
2022-08-17T14:24:27.455Z,33.40
2022-08-17T14:26:56.169Z,33.40
2022-08-17T14:29:28.041Z,33.50
2022-08-17T14:31:57.117Z,33.40
2022-08-17T14:34:26.001Z,33.30
2022-08-17T14:36:53.441Z,33.20
2022-08-17T14:39:20.939Z,33.20
2022-08-17T14:41:48.500Z,33.10
2022-08-17T14:44:16.488Z,33.20
2022-08-17T14:46:45.009Z,33.10
2022-08-17T14:49:15.777Z,33.20
2022-08-17T14:51:44.319Z,33.10
2022-08-17T14:54:34.085Z,33.10
2022-08-17T14:57:23.655Z,32.90
2022-08-17T14:59:55.123Z,32.90
2022-08-17T15:02:29.969Z,32.90
2022-08-17T15:05:04.637Z,32.90
2022-08-17T15:07:32.768Z,32.80
2022-08-17T15:10:02.501Z,32.80
2022-08-17T15:12:33.673Z,32.80
2022-08-17T15:15:05.678Z,33.00
2022-08-17T15:17:43.684Z,32.90
2022-08-17T15:20:21.623Z,32.80
2022-08-17T15:22:56.298Z,32.70
2022-08-17T15:25:26.081Z,32.60
2022-08-17T15:27:54.312Z,32.60
2022-08-17T15:30:21.917Z,32.50
2022-08-17T15:32:53.922Z,32.50
2022-08-17T15:35:30.050Z,32.50
2022-08-17T15:38:09.750Z,32.30
2022-08-17T15:40:42.381Z,32.30
2022-08-17T15:43:17.621Z,32.30
2022-08-17T15:45:58.722Z,32.30
2022-08-17T15:48:42.223Z,32.30
2022-08-17T15:51:17.189Z,32.30
2022-08-17T15:53:49.833Z,32.10
2022-08-17T15:56:17.593Z,32.20
2022-08-17T15:58:47.017Z,32.20
2022-08-17T16:02:14.255Z,32.20
2022-08-17T16:04:09.948Z,32.20
2022-08-17T16:06:52.521Z,32.20
2022-08-17T16:09:20.065Z,32.20
2022-08-17T16:11:53.784Z,32.10
2022-08-17T16:14:24.285Z,32.00
2022-08-17T16:16:52.406Z,31.90
2022-08-17T16:19:19.718Z,32.00
2022-08-17T16:21:46.941Z,32.00
2022-08-17T16:24:14.967Z,32.00
2022-08-17T16:26:42.470Z,31.90
2022-08-17T16:29:10.356Z,31.80
2022-08-17T16:31:38.048Z,31.80
2022-08-17T16:34:17.304Z,31.70
2022-08-17T16:36:55.615Z,31.70
2022-08-17T16:39:29.685Z,31.70
2022-08-17T16:41:57.669Z,31.70
2022-08-17T16:44:29.150Z,31.70
2022-08-17T16:46:57.578Z,31.60
2022-08-17T16:49:36.694Z,31.60
2022-08-17T16:52:11.038Z,31.60
2022-08-17T16:54:44.077Z,31.50
2022-08-17T16:57:13.870Z,31.40
2022-08-17T16:59:44.883Z,31.30
2022-08-17T17:02:16.475Z,31.20
2022-08-17T17:04:52.459Z,31.20
2022-08-17T17:07:46.026Z,31.10
2022-08-17T17:10:17.286Z,31.10
2022-08-17T17:13:01.985Z,31.00
2022-08-17T17:16:03.813Z,30.90
2022-08-17T17:18:40.792Z,30.90
2022-08-17T17:21:14.521Z,30.80
2022-08-17T17:23:56.980Z,30.70
2022-08-17T17:26:52.980Z,30.60
2022-08-17T17:29:29.136Z,30.40
2022-08-17T17:33:00.082Z,30.30
2022-08-17T17:35:35.067Z,30.30
2022-08-17T17:38:12.400Z,30.10
2022-08-17T17:40:44.239Z,30.10
2022-08-17T17:43:37.711Z,30.00
2022-08-17T17:46:28.486Z,29.90
2022-08-17T17:48:57.714Z,29.80
2022-08-17T17:52:08.026Z,29.80
2022-08-17T17:54:44.192Z,29.70
2022-08-17T17:57:22.576Z,29.60
2022-08-17T18:00:17.241Z,29.60
2022-08-17T18:03:00.180Z,29.50
2022-08-17T18:06:05.204Z,29.40
2022-08-17T18:08:55.724Z,29.30
2022-08-17T18:11:58.994Z,29.20
2022-08-17T18:14:37.138Z,29.20
2022-08-17T18:17:06.035Z,29.10
2022-08-17T18:19:33.535Z,29.10
2022-08-17T18:22:14.221Z,29.00
2022-08-17T18:24:48.111Z,28.90
2022-08-17T18:27:20.892Z,28.90
2022-08-17T18:29:53.123Z,28.80
2022-08-17T18:32:38.784Z,28.70
2022-08-17T18:35:09.088Z,28.70
2022-08-17T18:37:42.877Z,28.60
2022-08-17T18:40:19.897Z,28.50
2022-08-17T18:43:03.147Z,28.40
2022-08-17T18:45:47.361Z,28.40
2022-08-17T18:48:21.054Z,28.30
2022-08-17T18:50:48.887Z,28.20
2022-08-17T18:53:34.924Z,28.00
2022-08-17T18:56:30.666Z,28.10
2022-08-17T18:59:19.900Z,28.10
2022-08-17T19:02:23.269Z,28.10
2022-08-17T19:05:07.702Z,28.10
2022-08-17T19:07:42.048Z,28.00
2022-08-17T19:10:19.503Z,28.00
2022-08-17T19:13:00.149Z,27.90
2022-08-17T19:15:36.053Z,27.90
2022-08-17T19:18:21.683Z,27.90
2022-08-17T19:21:16.720Z,27.80
2022-08-17T19:24:04.904Z,27.80
2022-08-17T19:26:50.756Z,27.70
2022-08-17T19:29:55.598Z,27.70
2022-08-17T19:32:30.722Z,27.60
2022-08-17T19:34:58.622Z,27.60
2022-08-17T19:37:51.283Z,27.60
2022-08-17T19:40:52.666Z,27.50
2022-08-17T19:43:35.719Z,27.50
2022-08-17T19:46:20.192Z,27.50
2022-08-17T19:49:02.889Z,27.40
2022-08-17T19:51:35.186Z,27.40
2022-08-17T19:54:16.557Z,27.30
2022-08-17T19:57:13.388Z,27.30
2022-08-17T20:00:02.171Z,27.20
2022-08-17T20:02:48.190Z,27.20
2022-08-17T20:05:23.272Z,27.10
2022-08-17T20:08:03.829Z,27.10
2022-08-17T20:10:56.214Z,27.00
2022-08-17T20:13:44.071Z,27.00
2022-08-17T20:16:12.790Z,27.00
2022-08-17T20:18:59.164Z,26.90
2022-08-17T20:21:40.895Z,26.80
2022-08-17T20:24:46.865Z,26.80
2022-08-17T20:27:31.644Z,26.80
2022-08-17T20:30:33.761Z,26.80
2022-08-17T20:33:02.890Z,26.70
2022-08-17T20:35:40.594Z,26.70
2022-08-17T20:38:30.125Z,26.70
2022-08-17T20:41:00.073Z,26.60
2022-08-17T20:43:33.304Z,26.60
2022-08-17T20:46:10.861Z,26.60
2022-08-17T20:48:50.997Z,26.50
2022-08-17T20:51:35.782Z,26.40
2022-08-17T20:54:29.049Z,26.40
2022-08-17T20:57:00.701Z,26.40
2022-08-17T20:59:28.794Z,26.40
2022-08-17T21:02:12.380Z,26.40
2022-08-17T21:05:06.875Z,26.30
2022-08-17T21:07:43.069Z,26.30
2022-08-17T21:10:17.274Z,26.20
2022-08-17T21:12:48.973Z,26.20
2022-08-17T21:15:29.735Z,26.10
2022-08-17T21:17:57.078Z,26.10
2022-08-17T21:20:33.379Z,26.10
2022-08-17T21:23:09.550Z,26.00
2022-08-17T21:26:03.059Z,26.00
2022-08-17T21:29:00.693Z,26.00
2022-08-17T21:31:38.549Z,26.00
2022-08-17T21:34:15.507Z,26.00
2022-08-17T21:36:44.806Z,25.90
2022-08-17T21:39:14.653Z,25.80
2022-08-17T21:41:56.069Z,25.80
2022-08-17T21:44:36.897Z,25.80
2022-08-17T21:47:28.659Z,25.80
2022-08-17T21:50:14.264Z,25.70
2022-08-17T21:52:43.798Z,25.70
2022-08-17T21:55:28.387Z,25.70
2022-08-17T21:58:13.468Z,25.60
2022-08-17T22:00:46.711Z,25.60
2022-08-17T22:03:26.694Z,25.50
2022-08-17T22:05:54.106Z,25.50
2022-08-17T22:08:24.811Z,25.40
2022-08-17T22:11:03.474Z,25.40
2022-08-17T22:13:30.914Z,25.40
2022-08-17T22:16:29.225Z,25.30
2022-08-17T22:18:59.120Z,25.30
2022-08-17T22:21:27.089Z,25.30
2022-08-17T22:24:07.516Z,25.20
2022-08-17T22:27:01.635Z,25.20
2022-08-17T22:29:44.586Z,25.20
2022-08-17T22:32:31.596Z,25.10
2022-08-17T22:35:37.910Z,25.10
2022-08-17T22:38:20.657Z,25.10
2022-08-17T22:40:51.331Z,25.10
2022-08-17T22:43:26.399Z,25.00
2022-08-17T22:45:56.458Z,24.80
2022-08-17T22:48:27.483Z,24.80
2022-08-17T22:51:23.490Z,24.70
2022-08-17T22:54:16.625Z,24.60
2022-08-17T22:57:28.199Z,24.80
2022-08-17T22:59:56.234Z,24.80
2022-08-17T23:02:28.479Z,24.90
2022-08-17T23:05:17.001Z,24.90
2022-08-17T23:07:46.412Z,24.90
2022-08-17T23:10:14.915Z,24.90
2022-08-17T23:12:42.361Z,24.90
2022-08-17T23:15:14.520Z,24.90
2022-08-17T23:17:42.278Z,24.90
2022-08-17T23:20:13.219Z,24.90
2022-08-17T23:22:52.419Z,24.80
2022-08-17T23:25:32.108Z,24.80
2022-08-17T23:28:01.980Z,24.80
2022-08-17T23:30:36.970Z,24.70
2022-08-17T23:33:07.641Z,24.70
2022-08-17T23:35:38.853Z,24.70
2022-08-17T23:38:13.114Z,24.70
2022-08-17T23:40:41.221Z,24.60
2022-08-17T23:43:23.777Z,24.60
2022-08-17T23:45:54.426Z,24.60
2022-08-17T23:48:28.619Z,24.60
2022-08-17T23:51:09.327Z,24.50
2022-08-17T23:53:40.481Z,24.50
2022-08-17T23:56:11.171Z,24.50
2022-08-17T23:58:42.556Z,24.40
